Time;durP1;ratioP1;P1;durP2;ratioP2;P2;SDS_P1;SDS_P2;PMS_P1;PMS_P2;Temp;Humidity;BMP_temperature;BMP_pressure;BME280_temperature;BME280_humidity;BME280_pressure;Samples;Min_cycle;Max_cycle;Signal;HPM_P1;HPM_P2
2023/01/22 00:00:15;;;;;;;3.50;3.20;;;4.70;99.90;;;;;;4874276;29;20045;-73
2023/01/22 00:02:41;;;;;;;3.72;2.60;;;4.70;99.90;;;;;;4875313;29;20111;-73
2023/01/22 00:05:07;;;;;;;3.10;2.72;;;4.70;99.90;;;;;;4871746;29;20470;-74
2023/01/22 00:07:33;;;;;;;4.38;3.53;;;4.70;99.90;;;;;;4887242;29;20539;-72
2023/01/22 00:09:59;;;;;;;5.03;2.65;;;4.70;99.90;;;;;;4868854;29;20040;-72
2023/01/22 00:12:25;;;;;;;7.18;3.13;;;4.70;99.90;;;;;;4866044;29;20042;-72
2023/01/22 00:14:51;;;;;;;4.78;3.63;;;4.70;99.90;;;;;;4876157;29;20085;-73
2023/01/22 00:17:17;;;;;;;2.80;2.50;;;4.70;99.90;;;;;;4876630;29;20044;-71
2023/01/22 00:19:43;;;;;;;2.55;2.35;;;4.80;99.90;;;;;;4875129;29;20084;-72
2023/01/22 00:22:10;;;;;;;2.55;2.10;;;4.80;99.90;;;;;;4875574;29;20033;-72
2023/01/22 00:24:36;;;;;;;2.30;2.10;;;4.80;99.90;;;;;;4881678;29;20029;-71
2023/01/22 00:27:01;;;;;;;3.53;2.80;;;4.80;99.90;;;;;;4876316;29;20515;-72
2023/01/22 00:29:27;;;;;;;4.53;4.10;;;4.80;99.90;;;;;;4871528;29;20029;-70
2023/01/22 00:31:53;;;;;;;3.13;2.83;;;4.80;99.90;;;;;;4876209;29;20720;-69
2023/01/22 00:34:18;;;;;;;2.85;2.40;;;4.80;99.90;;;;;;4874640;29;20074;-70
2023/01/22 00:36:44;;;;;;;2.65;2.45;;;4.90;99.90;;;;;;4873126;29;20104;-70
2023/01/22 00:39:10;;;;;;;2.05;1.80;;;4.90;99.90;;;;;;4864173;29;20101;-70
2023/01/22 00:41:36;;;;;;;2.85;2.17;;;4.90;99.90;;;;;;4872779;29;20132;-70
2023/01/22 00:44:02;;;;;;;2.72;2.50;;;5.00;99.90;;;;;;4858754;29;20032;-69
2023/01/22 00:46:27;;;;;;;2.95;2.05;;;5.00;99.90;;;;;;4874279;29;20616;-69
2023/01/22 00:48:53;;;;;;;2.38;2.17;;;4.90;99.90;;;;;;4872833;29;20545;-69
2023/01/22 00:51:19;;;;;;;2.90;2.00;;;5.00;99.90;;;;;;4880364;29;20096;-70
2023/01/22 00:53:45;;;;;;;2.63;2.10;;;5.00;99.90;;;;;;4886843;29;20454;-69
2023/01/22 00:56:12;;;;;;;3.08;2.13;;;5.00;99.90;;;;;;4893536;29;20036;-70
2023/01/22 00:58:38;;;;;;;3.83;2.15;;;5.00;99.90;;;;;;4892307;29;20171;-70
2023/01/22 01:01:05;;;;;;;2.00;1.80;;;5.00;99.90;;;;;;4877944;29;20043;-72
2023/01/22 01:03:32;;;;;;;2.58;2.22;;;4.90;99.90;;;;;;4886207;29;20047;-70
2023/01/22 01:06:06;;;;;;;2.00;1.80;;;5.00;99.90;;;;;;4884331;29;20142;-71
2023/01/22 01:08:34;;;;;;;2.25;2.00;;;5.00;99.90;;;;;;4888882;29;20044;-71
2023/01/22 01:11:04;;;;;;;2.20;1.85;;;5.00;99.90;;;;;;4888043;29;20032;-71
2023/01/22 01:13:32;;;;;;;2.30;2.10;;;5.00;99.90;;;;;;4885046;29;20036;-71
2023/01/22 01:16:02;;;;;;;3.15;1.73;;;5.00;99.90;;;;;;4881659;29;20036;-71
2023/01/22 01:18:29;;;;;;;2.10;1.55;;;5.10;99.90;;;;;;4878678;29;20117;-71
2023/01/22 01:20:57;;;;;;;2.45;2.08;;;5.00;99.90;;;;;;4884120;29;20060;-70
2023/01/22 01:23:23;;;;;;;2.47;2.15;;;5.00;99.90;;;;;;4893935;29;20044;-70
2023/01/22 01:25:49;;;;;;;2.38;2.05;;;5.00;99.90;;;;;;4890826;29;20110;-70
2023/01/22 01:28:16;;;;;;;2.40;1.88;;;5.00;99.90;;;;;;4884354;29;20040;-70
2023/01/22 01:30:42;;;;;;;1.88;1.50;;;5.00;99.90;;;;;;4879944;29;20461;-70
2023/01/22 01:33:07;;;;;;;1.95;1.70;;;5.00;99.90;;;;;;4881503;29;20584;-70
2023/01/22 01:35:33;;;;;;;2.40;1.65;;;5.00;99.90;;;;;;4881074;29;20827;-70
2023/01/22 01:37:58;;;;;;;2.58;2.10;;;5.00;99.90;;;;;;4878231;29;20452;-70
2023/01/22 01:40:24;;;;;;;2.60;2.13;;;5.00;99.90;;;;;;4888632;29;20480;-70
2023/01/22 01:42:50;;;;;;;2.75;1.80;;;5.00;99.90;;;;;;4887186;29;20060;-71
2023/01/22 01:45:27;;;;;;;2.42;1.70;;;5.00;99.90;;;;;;4890521;29;20811;-70
2023/01/22 01:48:06;;;;;;;1.90;1.75;;;5.00;99.90;;;;;;4892326;29;20103;-70
2023/01/22 01:50:33;;;;;;;2.25;1.50;;;5.00;99.90;;;;;;4894826;29;20053;-71
2023/01/22 01:52:59;;;;;;;1.80;1.58;;;5.00;99.90;;;;;;4888449;29;20056;-70
2023/01/22 01:55:30;;;;;;;1.83;1.70;;;5.00;99.90;;;;;;4892714;29;20140;-70
2023/01/22 01:57:59;;;;;;;1.95;1.83;;;5.00;99.90;;;;;;4892060;29;20848;-70
2023/01/22 02:00:30;;;;;;;5.88;4.60;;;5.00;99.90;;;;;;4889777;29;20094;-70
2023/01/22 02:02:56;;;;;;;2.42;1.90;;;4.90;99.90;;;;;;4882295;29;20040;-70
2023/01/22 02:05:24;;;;;;;1.60;1.50;;;4.90;99.90;;;;;;4895545;29;20040;-70
2023/01/22 02:07:49;;;;;;;1.83;1.73;;;5.00;99.90;;;;;;4881772;29;20496;-70
2023/01/22 02:10:15;;;;;;;1.90;1.70;;;4.90;99.90;;;;;;4887269;29;20115;-69
2023/01/22 02:12:41;;;;;;;2.20;1.95;;;4.90;99.90;;;;;;4891659;29;20599;-70
2023/01/22 02:15:08;;;;;;;2.45;1.60;;;4.80;99.90;;;;;;4887363;29;20052;-70
2023/01/22 02:17:34;;;;;;;1.90;1.70;;;4.70;99.90;;;;;;4891000;29;20043;-70
2023/01/22 02:19:59;;;;;;;2.53;1.95;;;4.70;99.90;;;;;;4890242;29;20421;-70
2023/01/22 02:22:29;;;;;;;2.17;1.98;;;4.70;99.90;;;;;;4887180;29;20051;-70
2023/01/22 02:24:55;;;;;;;4.03;2.20;;;4.60;99.90;;;;;;4885190;29;20028;-69
2023/01/22 02:27:21;;;;;;;2.80;2.50;;;4.50;99.90;;;;;;4887937;29;20036;-69
2023/01/22 02:29:47;;;;;;;3.47;2.72;;;4.40;99.90;;;;;;4890858;29;20058;-70
2023/01/22 02:32:13;;;;;;;2.20;1.83;;;4.30;99.90;;;;;;4891351;29;20874;-70
2023/01/22 02:34:39;;;;;;;3.05;2.22;;;4.40;99.90;;;;;;4889949;29;20493;-70
2023/01/22 02:37:05;;;;;;;3.00;2.35;;;4.30;99.90;;;;;;4898060;29;20044;-70
2023/01/22 02:39:31;;;;;;;3.72;2.45;;;4.20;99.90;;;;;;4895470;29;20579;-70
2023/01/22 02:41:57;;;;;;;4.05;3.60;;;4.10;99.90;;;;;;4894907;29;20404;-70
2023/01/22 02:44:23;;;;;;;6.68;5.93;;;4.00;99.90;;;;;;4896348;29;20040;-70
2023/01/22 02:46:48;;;;;;;14.75;13.18;;;3.90;99.90;;;;;;4895828;29;20024;-73
2023/01/22 02:49:14;;;;;;;6.68;5.97;;;4.00;99.90;;;;;;4902215;29;20047;-72
2023/01/22 02:51:40;;;;;;;5.05;3.28;;;4.00;99.90;;;;;;4899755;29;20039;-73
2023/01/22 02:54:05;;;;;;;6.15;4.03;;;4.00;99.90;;;;;;4880581;29;20119;-73
2023/01/22 02:56:33;;;;;;;4.30;3.25;;;3.90;99.90;;;;;;4876301;29;20127;-73
2023/01/22 02:59:00;;;;;;;4.97;3.75;;;3.90;99.90;;;;;;4876788;29;20529;-73
2023/01/22 03:01:26;;;;;;;7.88;5.90;;;3.80;99.90;;;;;;4878646;29;20417;-73
2023/01/22 03:03:52;;;;;;;3.67;2.75;;;3.80;99.90;;;;;;4878368;29;20048;-72
2023/01/22 03:06:20;;;;;;;4.03;2.05;;;3.80;99.90;;;;;;4880053;29;20056;-70
2023/01/22 03:08:57;;;;;;;2.20;1.90;;;3.80;99.90;;;;;;4882228;29;20043;-70
2023/01/22 03:11:26;;;;;;;1.90;1.70;;;3.90;99.90;;;;;;4878424;29;20120;-69
2023/01/22 03:22:07;;;;;;;9.50;8.43;;;3.90;99.90;;;;;;4873125;29;20092;-70
2023/01/22 03:24:33;;;;;;;2.03;1.83;;;3.90;99.90;;;;;;4876988;29;20119;-70
2023/01/22 03:26:59;;;;;;;2.67;2.35;;;3.90;99.90;;;;;;4877217;29;20039;-70
2023/01/22 03:29:25;;;;;;;2.92;2.30;;;3.90;99.90;;;;;;4874462;29;20362;-70
2023/01/22 03:31:50;;;;;;;1.60;1.50;;;3.90;99.90;;;;;;4875403;29;20506;-70
2023/01/22 03:34:18;;;;;;;4.15;3.75;;;3.90;99.90;;;;;;4879756;29;20045;-70
2023/01/22 03:36:44;;;;;;;2.13;1.77;;;4.00;99.90;;;;;;4875600;29;20056;-70
2023/01/22 03:39:10;;;;;;;2.33;2.13;;;4.00;99.90;;;;;;4878305;29;20041;-70
2023/01/22 03:41:36;;;;;;;3.28;1.85;;;4.10;99.90;;;;;;4862344;29;20049;-70
2023/01/22 03:44:02;;;;;;;1.92;1.80;;;4.00;99.90;;;;;;4871793;29;20037;-72
2023/01/22 03:46:29;;;;;;;2.20;1.83;;;4.00;99.90;;;;;;4868366;29;20047;-72
2023/01/22 03:48:54;;;;;;;2.42;1.98;;;4.00;99.90;;;;;;4878245;29;20039;-72
2023/01/22 03:51:20;;;;;;;5.90;4.10;;;4.10;99.90;;;;;;4877077;29;20055;-73
2023/01/22 03:53:46;;;;;;;2.10;1.98;;;4.10;99.90;;;;;;4893586;29;20056;-72
2023/01/22 03:56:21;;;;;;;3.28;2.97;;;4.10;99.90;;;;;;4892691;29;20438;-72
2023/01/22 03:58:47;;;;;;;3.80;2.92;;;4.10;99.90;;;;;;4898438;29;20048;-72
2023/01/22 04:01:16;;;;;;;4.40;3.03;;;4.10;99.90;;;;;;4894307;29;20040;-72
2023/01/22 04:03:42;;;;;;;2.70;2.20;;;4.10;99.90;;;;;;4887453;29;20647;-72
2023/01/22 04:06:09;;;;;;;2.33;2.13;;;4.20;99.90;;;;;;4895274;29;20040;-72
2023/01/22 04:08:36;;;;;;;3.22;2.60;;;4.20;99.90;;;;;;4879836;29;20095;-71
2023/01/22 04:11:02;;;;;;;3.78;2.10;;;4.20;99.90;;;;;;4894132;29;20123;-72
2023/01/22 04:13:29;;;;;;;2.35;1.88;;;4.20;99.90;;;;;;4874710;29;20056;-72
2023/01/22 04:15:55;;;;;;;2.10;1.50;;;4.20;99.90;;;;;;4885637;29;20064;-72
2023/01/22 04:18:21;;;;;;;2.00;1.80;;;4.20;99.90;;;;;;4897751;29;20045;-72
2023/01/22 04:20:48;;;;;;;2.40;1.73;;;4.20;99.90;;;;;;4899367;29;20074;-72
2023/01/22 04:23:15;;;;;;;1.90;1.70;;;4.20;99.90;;;;;;4895337;29;20121;-70
2023/01/22 04:25:41;;;;;;;2.20;1.77;;;4.20;99.90;;;;;;4893711;29;20660;-70
2023/01/22 04:28:07;;;;;;;2.47;1.92;;;4.20;99.90;;;;;;4894524;29;20041;-70
2023/01/22 04:30:33;;;;;;;10.95;1.95;;;4.20;99.90;;;;;;4894783;29;20040;-70
2023/01/22 04:32:58;;;;;;;2.65;2.05;;;4.20;99.90;;;;;;4895155;29;20047;-70
2023/01/22 04:35:24;;;;;;;3.35;2.60;;;4.20;99.90;;;;;;4892317;29;20475;-70
2023/01/22 04:37:50;;;;;;;2.72;2.28;;;4.20;99.90;;;;;;4894528;29;20032;-70
2023/01/22 04:40:16;;;;;;;2.30;2.10;;;4.30;99.90;;;;;;4893976;29;20041;-70
2023/01/22 04:42:41;;;;;;;3.15;2.10;;;4.30;99.90;;;;;;4893544;29;20591;-70
2023/01/22 04:45:08;;;;;;;2.60;2.30;;;4.20;99.90;;;;;;4891657;29;20378;-70
2023/01/22 04:47:33;;;;;;;4.03;2.60;;;4.20;99.90;;;;;;4900229;29;20043;-70
2023/01/22 04:49:59;;;;;;;3.05;2.75;;;4.20;99.90;;;;;;4888934;29;20543;-70
2023/01/22 04:52:25;;;;;;;5.70;3.03;;;4.30;99.90;;;;;;4890211;29;20384;-70
2023/01/22 04:54:52;;;;;;;4.90;2.92;;;4.30;99.90;;;;;;4895774;29;20483;-70
2023/01/22 04:57:17;;;;;;;4.30;3.00;;;4.40;99.90;;;;;;4896525;29;20047;-70
2023/01/22 04:59:43;;;;;;;5.43;2.85;;;4.40;99.90;;;;;;4891152;29;20055;-70
2023/01/22 05:02:09;;;;;;;4.57;3.00;;;4.30;99.90;;;;;;4898357;29;20103;-72
2023/01/22 05:04:34;;;;;;;3.55;3.13;;;4.30;99.90;;;;;;4894984;29;20057;-71
2023/01/22 05:07:00;;;;;;;3.33;2.75;;;4.30;99.90;;;;;;4892521;29;20532;-71
2023/01/22 05:09:25;;;;;;;3.72;2.92;;;4.40;99.90;;;;;;4893745;29;20508;-71
2023/01/22 05:11:51;;;;;;;2.30;2.10;;;4.50;99.90;;;;;;4898829;29;20565;-72
2023/01/22 05:14:17;;;;;;;4.25;3.00;;;4.50;99.90;;;;;;4895268;29;20051;-71
2023/01/22 05:16:42;;;;;;;2.90;2.60;;;4.60;99.90;;;;;;4898374;29;20040;-72
2023/01/22 05:19:08;;;;;;;2.80;2.50;;;4.60;99.90;;;;;;4898748;29;20058;-71
2023/01/22 05:21:35;;;;;;;2.83;2.33;;;4.60;99.90;;;;;;4899049;29;20047;-71
2023/01/22 05:24:01;;;;;;;3.75;2.58;;;4.50;99.90;;;;;;4893205;29;20028;-70
2023/01/22 05:26:26;;;;;;;2.97;2.47;;;4.50;99.90;;;;;;4881852;29;20457;-70
2023/01/22 05:28:52;;;;;;;3.17;2.60;;;4.50;99.90;;;;;;4897989;29;20408;-70
2023/01/22 05:31:17;;;;;;;2.20;1.90;;;4.60;99.90;;;;;;4897210;29;20075;-70
2023/01/22 05:33:43;;;;;;;4.68;3.20;;;4.60;99.90;;;;;;4899164;29;20483;-70
2023/01/22 05:36:11;;;;;;;7.90;5.18;;;4.70;99.90;;;;;;4899453;29;20051;-70
2023/01/22 05:38:37;;;;;;;5.20;4.70;;;4.80;99.90;;;;;;4900531;29;20453;-72
2023/01/22 05:41:03;;;;;;;4.85;4.13;;;4.80;99.90;;;;;;4895291;29;20044;-72
2023/01/22 05:43:29;;;;;;;5.88;2.75;;;4.90;99.90;;;;;;4894294;29;20032;-71
2023/01/22 05:45:59;;;;;;;5.50;4.20;;;5.00;99.90;;;;;;4898713;29;20418;-72
2023/01/22 05:48:25;;;;;;;4.95;3.80;;;5.10;99.90;;;;;;4895503;29;20032;-71
2023/01/22 05:50:51;;;;;;;4.88;3.97;;;5.10;99.90;;;;;;4901856;29;20044;-72
2023/01/22 05:53:16;;;;;;;5.43;4.53;;;5.10;99.90;;;;;;4889532;29;20123;-72
2023/01/22 05:55:42;;;;;;;5.50;4.15;;;5.00;99.90;;;;;;4878981;29;20040;-72
2023/01/22 05:58:07;;;;;;;9.68;8.18;;;5.00;99.90;;;;;;4878186;29;20049;-70
2023/01/22 06:00:33;;;;;;;11.20;8.57;;;4.90;99.90;;;;;;4871495;29;20044;-70
2023/01/22 06:03:00;;;;;;;7.78;6.13;;;4.80;99.90;;;;;;4878231;29;20048;-70
2023/01/22 06:05:26;;;;;;;13.13;10.07;;;4.80;99.90;;;;;;4877509;29;20028;-70
2023/01/22 06:07:52;;;;;;;15.10;10.85;;;4.70;99.90;;;;;;4877716;29;20100;-70
2023/01/22 06:10:18;;;;;;;13.63;10.52;;;4.70;99.90;;;;;;4877640;29;20040;-70
2023/01/22 06:12:43;;;;;;;34.60;19.63;;;4.70;99.90;;;;;;4883316;29;20131;-70
2023/01/22 06:15:10;;;;;;;62.22;32.60;;;4.80;99.90;;;;;;4878938;29;20067;-69
2023/01/22 06:17:36;;;;;;;44.95;26.65;;;4.70;99.90;;;;;;4873456;29;20041;-70
2023/01/22 06:20:03;;;;;;;29.48;17.75;;;4.70;99.90;;;;;;4877307;29;20117;-70
2023/01/22 06:22:29;;;;;;;20.63;13.35;;;4.70;99.90;;;;;;4881272;29;20561;-70
2023/01/22 06:24:55;;;;;;;48.15;26.45;;;4.70;99.90;;;;;;4877804;29;20738;-70
2023/01/22 06:27:20;;;;;;;16.30;12.20;;;4.60;99.90;;;;;;4877652;29;20037;-70
2023/01/22 06:29:46;;;;;;;19.27;14.38;;;4.60;99.90;;;;;;4892620;29;20048;-70
2023/01/22 06:32:11;;;;;;;40.78;26.48;;;4.50;99.90;;;;;;4872744;29;20047;-70
2023/01/22 06:34:38;;;;;;;52.03;27.63;;;4.60;99.90;;;;;;4880889;29;20068;-72
2023/01/22 06:37:04;;;;;;;37.10;20.33;;;4.60;99.90;;;;;;4875154;29;20049;-70
2023/01/22 06:39:30;;;;;;;24.55;11.38;;;4.70;99.90;;;;;;4877772;29;20104;-70
2023/01/22 06:41:55;;;;;;;15.68;10.63;;;4.80;99.90;;;;;;4876400;29;20032;-70
2023/01/22 06:44:21;;;;;;;12.40;9.38;;;4.90;99.90;;;;;;4879506;29;20069;-70
2023/01/22 06:46:46;;;;;;;8.38;6.53;;;4.90;99.90;;;;;;4876297;29;20036;-70
2023/01/22 06:49:13;;;;;;;9.68;5.90;;;5.00;99.90;;;;;;4877243;29;20490;-70
2023/01/22 06:51:39;;;;;;;11.80;8.07;;;5.00;99.90;;;;;;4875051;29;20482;-70
2023/01/22 06:54:05;;;;;;;23.50;15.55;;;5.00;99.90;;;;;;4898919;29;20044;-70
2023/01/22 06:56:30;;;;;;;38.53;25.00;;;4.90;99.90;;;;;;4891292;29;20078;-70
2023/01/22 06:58:57;;;;;;;25.10;17.38;;;4.70;99.90;;;;;;4898900;29;20055;-70
2023/01/22 07:01:24;;;;;;;22.05;14.75;;;4.50;99.90;;;;;;4895565;29;20464;-71
2023/01/22 07:03:50;;;;;;;18.50;13.10;;;4.40;99.90;;;;;;4898987;29;21030;-70
2023/01/22 07:06:17;;;;;;;11.98;9.25;;;4.50;99.90;;;;;;4891058;29;20060;-70
2023/01/22 07:08:43;;;;;;;15.18;11.48;;;4.40;99.90;;;;;;4895722;29;20127;-70
2023/01/22 07:11:08;;;;;;;29.65;21.45;;;4.40;99.90;;;;;;4893093;29;20116;-70
2023/01/22 07:13:34;;;;;;;14.63;11.90;;;4.50;99.90;;;;;;4899208;29;20041;-71
2023/01/22 07:16:01;;;;;;;17.15;13.43;;;4.40;99.90;;;;;;4890941;29;20096;-71
2023/01/22 07:18:27;;;;;;;21.25;15.50;;;4.40;99.90;;;;;;4894811;29;21181;-70
2023/01/22 07:20:53;;;;;;;13.98;10.07;;;4.50;99.90;;;;;;4892462;29;20024;-71
2023/01/22 07:23:19;;;;;;;14.95;11.00;;;4.60;99.90;;;;;;4896391;29;20040;-71
2023/01/22 07:25:45;;;;;;;16.75;12.23;;;4.70;99.90;;;;;;4892792;29;20401;-70
2023/01/22 07:28:13;;;;;;;11.25;9.10;;;4.70;99.90;;;;;;4898257;29;20016;-70
2023/01/22 07:30:41;;;;;;;8.35;7.28;;;4.70;99.90;;;;;;4863267;29;20058;-70
2023/01/22 07:33:10;;;;;;;10.32;6.25;;;4.80;99.90;;;;;;4885885;29;20131;-70
2023/01/22 07:35:35;;;;;;;41.67;24.38;;;4.80;99.90;;;;;;4896524;29;20055;-70
2023/01/22 07:38:01;;;;;;;34.83;22.38;;;4.80;99.90;;;;;;4889157;29;20032;-71
2023/01/22 07:40:27;;;;;;;31.85;19.73;;;4.70;99.90;;;;;;4880004;29;20080;-70
2023/01/22 07:42:54;;;;;;;33.00;20.23;;;4.70;99.90;;;;;;4902336;29;20085;-71
2023/01/22 07:45:21;;;;;;;19.70;14.27;;;4.70;99.90;;;;;;4894192;29;20141;-70
2023/01/22 07:47:57;;;;;;;17.02;12.15;;;4.70;99.90;;;;;;4891775;29;20032;-70
2023/01/22 07:50:28;;;;;;;12.73;10.10;;;4.70;99.90;;;;;;4884510;29;20048;-71
2023/01/22 07:52:54;;;;;;;35.05;19.25;;;4.80;99.90;;;;;;4877174;29;20046;-72
2023/01/22 07:55:20;;;;;;;20.23;13.48;;;4.80;99.90;;;;;;4890384;29;20052;-73
2023/01/22 07:57:46;;;;;;;18.17;10.77;;;4.90;99.90;;;;;;4890338;29;20039;-71
2023/01/22 08:00:14;;;;;;;14.70;8.77;;;4.90;99.90;;;;;;4889632;29;20556;-70
2023/01/22 08:02:41;;;;;;;8.88;5.35;;;5.00;99.90;;;;;;4887724;29;20079;-71
2023/01/22 08:05:07;;;;;;;8.52;4.55;;;5.10;99.90;;;;;;4890273;29;20202;-71
2023/01/22 08:07:34;;;;;;;43.42;15.75;;;5.10;99.90;;;;;;4880288;29;21195;-71
2023/01/22 08:10:00;;;;;;;11.63;5.05;;;5.20;99.90;;;;;;4890192;29;20099;-71
2023/01/22 08:12:25;;;;;;;14.02;7.13;;;5.20;99.90;;;;;;4896950;29;20036;-71
2023/01/22 08:14:51;;;;;;;13.02;7.63;;;5.10;99.90;;;;;;4896464;29;20052;-71
2023/01/22 08:17:16;;;;;;;17.10;8.80;;;5.20;99.90;;;;;;4888982;29;20062;-71
2023/01/22 08:19:42;;;;;;;17.25;7.38;;;5.30;99.90;;;;;;4889055;29;22064;-71
2023/01/22 08:22:08;;;;;;;12.32;5.93;;;5.30;99.90;;;;;;4890595;29;20048;-71
2023/01/22 08:24:33;;;;;;;48.58;18.63;;;5.30;99.90;;;;;;4894312;29;20035;-71
2023/01/22 08:27:00;;;;;;;44.47;16.75;;;5.30;99.90;;;;;;4884358;29;20127;-71
2023/01/22 08:29:25;;;;;;;37.75;16.98;;;5.30;99.90;;;;;;4893115;29;20211;-72
2023/01/22 08:31:52;;;;;;;30.27;10.93;;;5.30;99.90;;;;;;4895611;29;20488;-71
2023/01/22 08:34:18;;;;;;;6.38;3.72;;;5.30;99.90;;;;;;4896242;29;20112;-71
2023/01/22 08:36:44;;;;;;;6.63;3.60;;;5.40;99.90;;;;;;4896581;29;20044;-71
2023/01/22 08:39:10;;;;;;;16.35;6.18;;;5.50;99.90;;;;;;4892646;29;20073;-71
2023/01/22 08:41:36;;;;;;;8.18;4.43;;;5.50;99.90;;;;;;4889571;29;20563;-71
2023/01/22 08:44:02;;;;;;;20.42;7.38;;;5.50;99.90;;;;;;4898095;29;20054;-71
2023/01/22 08:46:27;;;;;;;8.60;5.38;;;5.50;99.90;;;;;;4895217;29;20055;-71
2023/01/22 08:48:53;;;;;;;7.97;4.47;;;5.50;99.90;;;;;;4889069;29;20048;-75
2023/01/22 08:51:21;;;;;;;4.03;3.63;;;5.60;99.90;;;;;;4891235;29;20043;-71
2023/01/22 08:53:47;;;;;;;18.67;10.70;;;5.60;99.90;;;;;;4890434;29;20036;-71
2023/01/22 08:56:12;;;;;;;15.82;7.07;;;5.70;99.90;;;;;;4888317;29;20032;-71
2023/01/22 08:58:38;;;;;;;14.45;7.35;;;5.60;99.90;;;;;;4892156;29;20337;-71
2023/01/22 09:01:04;;;;;;;39.22;12.95;;;5.60;99.90;;;;;;4876038;29;20102;-71
2023/01/22 09:03:29;;;;;;;22.77;16.65;;;5.60;99.90;;;;;;4895134;29;20608;-71
2023/01/22 09:05:57;;;;;;;30.65;14.93;;;5.60;99.90;;;;;;4895794;29;20040;-71
2023/01/22 09:08:22;;;;;;;29.85;14.00;;;5.60;99.90;;;;;;4888845;29;20143;-71
2023/01/22 09:10:48;;;;;;;17.02;9.52;;;5.60;99.90;;;;;;4892383;29;20056;-71
2023/01/22 09:13:13;;;;;;;17.27;9.88;;;5.60;99.90;;;;;;4902015;29;20091;-70
2023/01/22 09:15:40;;;;;;;51.60;22.52;;;5.70;99.90;;;;;;4896813;29;20078;-71
2023/01/22 09:18:06;;;;;;;16.42;8.70;;;5.70;99.90;;;;;;4894613;29;20044;-71
2023/01/22 09:20:32;;;;;;;72.95;31.58;;;5.70;99.90;;;;;;4883045;29;21917;-71
2023/01/22 09:22:57;;;;;;;37.35;19.77;;;5.70;99.90;;;;;;4897324;29;20484;-71
2023/01/22 09:25:25;;;;;;;19.13;11.60;;;5.70;99.90;;;;;;4898344;29;20706;-71
2023/01/22 09:27:59;;;;;;;19.70;13.15;;;5.70;99.90;;;;;;4897407;29;20095;-74
2023/01/22 09:30:26;;;;;;;17.15;12.73;;;5.70;99.90;;;;;;4883567;29;20382;-74
2023/01/22 09:32:52;;;;;;;12.32;7.75;;;5.80;99.90;;;;;;4898158;29;20055;-74
2023/01/22 09:35:17;;;;;;;16.25;11.98;;;5.80;99.90;;;;;;4902685;29;20046;-75
2023/01/22 09:37:43;;;;;;;7.95;6.03;;;5.80;99.90;;;;;;4897968;29;20119;-75
2023/01/22 09:40:29;;;;;;;13.60;9.65;;;5.90;99.90;;;;;;4895012;29;20111;-74
2023/01/22 09:43:05;;;;;;;6.80;5.40;;;5.90;99.90;;;;;;4900670;29;20576;-75
2023/01/22 09:45:35;;;;;;;6.63;4.47;;;5.80;99.90;;;;;;4898208;29;20424;-74
2023/01/22 09:48:04;;;;;;;13.75;8.20;;;5.90;99.90;;;;;;4895546;29;20524;-74
2023/01/22 09:50:33;;;;;;;19.45;9.70;;;6.00;99.90;;;;;;4897107;29;20386;-74
2023/01/22 09:53:03;;;;;;;13.70;9.05;;;6.00;99.90;;;;;;4895453;29;20097;-75
2023/01/22 09:55:34;;;;;;;16.10;7.03;;;6.10;99.90;;;;;;4898104;29;20189;-75
2023/01/22 09:58:04;;;;;;;17.70;9.90;;;6.10;99.90;;;;;;4898332;29;20493;-75
2023/01/22 10:00:48;;;;;;;9.93;5.75;;;6.00;99.90;;;;;;4900221;29;20039;-75
2023/01/22 10:03:37;;;;;;;15.43;7.72;;;6.00;99.90;;;;;;4894287;29;20032;-75
2023/01/22 10:06:13;;;;;;;9.90;7.20;;;6.00;99.90;;;;;;4885265;29;20040;-75
2023/01/22 10:09:07;;;;;;;25.85;11.82;;;6.00;99.90;;;;;;4887050;29;20032;-74
2023/01/22 10:11:33;;;;;;;26.02;11.27;;;6.00;99.90;;;;;;4898395;29;20091;-77
2023/01/22 10:14:01;;;;;;;31.58;8.32;;;6.00;99.90;;;;;;4893743;29;20516;-76
2023/01/22 10:16:27;;;;;;;18.55;9.27;;;6.00;99.90;;;;;;4895761;29;20036;-75
2023/01/22 10:19:13;;;;;;;54.75;18.55;;;6.10;99.90;;;;;;4897075;29;20040;-76
2023/01/22 10:21:46;;;;;;;9.38;5.32;;;6.20;99.90;;;;;;4898432;29;20048;-76
2023/01/22 10:24:12;;;;;;;17.67;7.72;;;6.30;99.90;;;;;;4900123;29;20202;-72
2023/01/22 10:26:39;;;;;;;30.92;12.00;;;6.30;99.90;;;;;;4888545;29;20912;-71
2023/01/22 10:29:14;;;;;;;41.17;16.73;;;6.30;99.90;;;;;;4898446;29;20037;-72
2023/01/22 10:31:46;;;;;;;7.50;4.78;;;6.20;99.90;;;;;;4899073;29;20044;-72
2023/01/22 10:34:20;;;;;;;44.35;15.20;;;6.10;99.90;;;;;;4897872;29;20056;-71
2023/01/22 10:36:52;;;;;;;19.42;7.38;;;6.20;99.90;;;;;;4900057;29;20224;-71
2023/01/22 10:39:19;;;;;;;8.55;6.30;;;6.20;99.90;;;;;;4903534;29;20037;-70
2023/01/22 10:41:46;;;;;;;54.08;20.02;;;6.10;99.90;;;;;;4896802;29;20037;-71
2023/01/22 10:44:15;;;;;;;4.95;3.92;;;6.10;99.90;;;;;;4892226;29;20048;-74
2023/01/22 10:46:41;;;;;;;13.10;7.55;;;6.20;99.90;;;;;;4897087;29;20036;-75
2023/01/22 10:49:23;;;;;;;51.80;19.13;;;6.30;99.90;;;;;;4899695;29;20115;-74
2023/01/22 10:52:00;;;;;;;46.97;16.67;;;6.30;99.90;;;;;;4894039;29;20032;-75
2023/01/22 10:54:42;;;;;;;34.35;12.25;;;6.40;99.90;;;;;;4894584;29;20581;-74
2023/01/22 10:57:30;;;;;;;48.22;17.60;;;6.40;99.90;;;;;;4893504;29;20040;-74
2023/01/22 11:00:14;;;;;;;16.42;7.88;;;6.30;99.90;;;;;;4893542;29;20147;-74
2023/01/22 11:02:45;;;;;;;10.75;6.97;;;6.40;99.90;;;;;;4895974;29;20509;-74
2023/01/22 11:05:19;;;;;;;10.55;6.10;;;6.40;99.90;;;;;;4894614;29;20029;-74
2023/01/22 11:08:06;;;;;;;11.73;5.28;;;6.40;99.90;;;;;;4900124;29;20120;-74
2023/01/22 11:10:46;;;;;;;25.27;8.25;;;6.40;99.90;;;;;;4885242;29;20051;-72
2023/01/22 11:13:18;;;;;;;18.77;7.72;;;6.50;99.90;;;;;;4899676;29;20124;-74
2023/01/22 11:15:54;;;;;;;;;;;6.40;99.90;;;;;;4899145;29;20041;-74
2023/01/22 11:18:39;;;;;;;24.67;8.43;;;6.40;99.90;;;;;;4902167;29;19911;-73
2023/01/22 11:21:17;;;;;;;22.60;7.80;;;6.40;99.90;;;;;;4893113;29;20036;-71
2023/01/22 11:24:08;;;;;;;37.75;9.98;;;6.30;99.90;;;;;;4896336;29;20032;-71
2023/01/22 11:26:42;;;;;;;17.67;8.10;;;6.40;99.90;;;;;;4892423;29;20159;-72
2023/01/22 11:29:16;;;;;;;47.67;20.17;;;6.40;99.90;;;;;;4898865;29;20438;-72
2023/01/22 11:32:03;;;;;;;16.30;9.15;;;6.40;99.90;;;;;;4894883;29;20039;-72
2023/01/22 11:34:51;;;;;;;13.98;6.38;;;6.40;99.90;;;;;;4897211;29;20149;-72
2023/01/22 11:37:22;;;;;;;17.63;9.02;;;6.40;99.90;;;;;;4896102;29;20028;-73
2023/01/22 11:40:18;;;;;;;5.87;4.10;;;6.40;99.90;;;;;;4895286;29;20123;-73
2023/01/22 11:43:07;;;;;;;6.43;5.70;;;6.50;99.90;;;;;;4898865;29;20035;-72
2023/01/22 11:45:57;;;;;;;12.18;10.05;;;6.50;99.90;;;;;;4893936;29;20076;-71
2023/01/22 11:48:38;;;;;;;6.13;4.15;;;6.50;99.90;;;;;;4890804;29;20111;-73
2023/01/22 11:51:24;;;;;;;5.50;5.00;;;6.60;99.90;;;;;;4888723;29;20488;-73
2023/01/22 11:54:01;;;;;;;6.60;3.50;;;6.60;99.90;;;;;;4888137;29;20056;-72
2023/01/22 11:56:47;;;;;;;6.47;5.85;;;6.60;99.90;;;;;;4896937;29;20339;-73
2023/01/22 11:59:36;;;;;;;9.50;5.20;;;6.50;99.90;;;;;;4888010;29;20044;-73
2023/01/22 12:02:41;;;;;;;9.75;7.55;;;6.60;99.90;;;;;;4909423;29;20059;-73
2023/01/22 12:05:41;;;;;;;21.25;9.68;;;6.60;99.90;;;;;;4897159;29;20430;-73
2023/01/22 12:08:29;;;;;;;17.65;6.68;;;6.50;99.90;;;;;;4862877;29;20520;-75
2023/01/22 12:11:01;;;;;;;27.70;10.50;;;6.60;99.90;;;;;;4896341;29;20101;-76
2023/01/22 12:13:53;;;;;;;44.72;13.98;;;6.60;99.90;;;;;;4897420;29;20115;-73
2023/01/22 12:16:37;;;;;;;23.75;14.45;;;6.60;99.90;;;;;;4894320;29;20479;-74
2023/01/22 12:19:27;;;;;;;12.63;9.30;;;6.60;99.90;;;;;;4901217;29;20036;-71
2023/01/22 12:22:16;;;;;;;14.52;12.50;;;6.60;99.90;;;;;;4912980;29;20067;-71
2023/01/22 12:24:59;;;;;;;13.90;8.05;;;6.60;99.90;;;;;;4888203;29;20046;-71
2023/01/22 12:27:35;;;;;;;12.80;8.65;;;6.70;99.90;;;;;;4899737;29;20135;-73
2023/01/22 12:30:26;;;;;;;32.13;11.43;;;6.70;99.90;;;;;;4898213;29;20093;-72
2023/01/22 12:32:59;;;;;;;30.10;12.90;;;6.60;99.90;;;;;;4897161;29;20076;-73
2023/01/22 12:35:29;;;;;;;15.80;9.55;;;6.60;99.90;;;;;;4895739;29;20086;-73
2023/01/22 12:38:10;;;;;;;15.52;9.43;;;6.60;99.90;;;;;;4898100;29;20075;-72
2023/01/22 12:41:21;;;;;;;31.83;12.00;;;6.60;99.90;;;;;;4899894;29;20044;-73
2023/01/22 12:43:55;;;;;;;12.75;8.50;;;6.70;99.90;;;;;;4875495;29;20045;-71
2023/01/22 12:46:49;;;;;;;31.92;14.93;;;6.70;99.90;;;;;;4896437;29;20047;-72
2023/01/22 12:49:15;;;;;;;31.67;13.88;;;6.70;99.90;;;;;;4889622;29;20096;-71
2023/01/22 12:51:45;;;;;;;140.30;40.42;;;6.70;99.90;;;;;;4897399;29;20075;-72
2023/01/22 12:54:27;;;;;;;61.53;24.98;;;6.70;99.90;;;;;;4873445;29;20079;-72
2023/01/22 12:56:56;;;;;;;23.33;10.88;;;6.70;99.90;;;;;;4877365;29;20047;-70
2023/01/22 12:59:49;;;;;;;13.00;8.23;;;6.70;99.90;;;;;;4878867;29;20033;-71
2023/01/22 13:02:34;;;;;;;22.30;12.85;;;6.80;99.90;;;;;;4846854;29;20587;-71
2023/01/22 13:05:18;;;;;;;23.17;11.65;;;6.70;99.90;;;;;;4865411;29;20474;-71
2023/01/22 13:07:45;;;;;;;19.63;10.98;;;6.70;99.90;;;;;;4871634;29;20041;-70
2023/01/22 13:10:29;;;;;;;21.40;9.57;;;6.80;99.90;;;;;;4870168;29;20156;-72